createdAt,value
2022-09-28T02:12:05.906Z,5.88
2022-09-28T03:08:34.754Z,5.96
2022-09-28T03:37:30.593Z,5.77
2022-09-28T03:53:26.154Z,5.76
2022-09-28T04:28:08.047Z,5.27
2022-09-28T04:42:24.045Z,5.24
2022-09-28T05:54:47.915Z,5.40
2022-09-28T05:57:15.070Z,5.43
2022-09-28T05:59:41.497Z,5.46
2022-09-28T06:02:07.991Z,5.50
2022-09-28T06:04:34.451Z,5.57
2022-09-28T06:07:00.893Z,5.67
2022-09-28T06:09:27.332Z,5.78
2022-09-28T06:11:53.791Z,5.87
2022-09-28T06:14:20.211Z,5.97
2022-09-28T06:16:46.659Z,6.10
2022-09-28T06:19:13.130Z,6.18
2022-09-28T06:21:39.592Z,6.28
2022-09-28T06:24:06.182Z,6.36
2022-09-28T06:26:32.689Z,6.46
2022-09-28T06:29:00.509Z,6.54
2022-09-28T06:31:30.090Z,6.63
2022-09-28T06:33:56.724Z,6.71
2022-09-28T06:36:23.644Z,6.80
2022-09-28T06:38:50.058Z,6.87
2022-09-28T06:41:16.482Z,6.93
2022-09-28T06:43:43.360Z,6.98
2022-09-28T06:46:10.511Z,7.03
2022-09-28T06:48:37.679Z,7.06
2022-09-28T06:51:04.541Z,7.10
2022-09-28T06:53:31.391Z,7.14
2022-09-28T06:55:57.952Z,7.17
2022-09-28T06:58:24.942Z,7.22
2022-09-28T07:00:52.037Z,7.26
2022-09-28T07:03:21.638Z,7.32
2022-09-28T07:05:53.908Z,7.36
2022-09-28T07:08:24.662Z,7.42
2022-09-28T07:10:58.264Z,7.47
2022-09-28T07:16:14.794Z,7.59
2022-09-28T07:18:42.257Z,7.63
2022-09-28T07:21:14.763Z,7.70
2022-09-28T07:23:53.184Z,7.77
2022-09-28T07:26:23.617Z,7.83
2022-09-28T07:28:50.693Z,7.89
2022-09-28T07:31:17.278Z,7.95
2022-09-28T07:33:43.721Z,8.02
2022-09-28T07:36:10.641Z,8.08
2022-09-28T07:38:38.238Z,8.14
2022-09-28T07:41:14.322Z,8.20
2022-09-28T07:43:41.881Z,8.27
2022-09-28T07:46:11.947Z,8.34
2022-09-28T07:48:40.317Z,8.40
2022-09-28T07:51:08.029Z,8.48
2022-09-28T07:53:35.175Z,8.53
2022-09-28T07:56:17.195Z,8.61
2022-09-28T07:58:43.821Z,8.70
2022-09-28T08:01:12.969Z,8.77
2022-09-28T08:03:39.740Z,8.82
2022-09-28T08:06:09.753Z,8.90
2022-09-28T08:08:36.724Z,8.97
2022-09-28T08:11:05.781Z,9.03
2022-09-28T08:13:32.278Z,9.11
2022-09-28T08:16:02.427Z,9.18
2022-09-28T08:18:29.275Z,9.24
2022-09-28T08:21:14.276Z,9.31
2022-09-28T08:23:41.246Z,9.39
2022-09-28T08:26:11.063Z,9.47
2022-09-28T08:28:42.350Z,9.54
2022-09-28T08:31:09.341Z,9.63
2022-09-28T08:33:36.074Z,9.70
2022-09-28T08:36:04.449Z,9.79
2022-09-28T08:38:31.278Z,9.89
2022-09-28T08:41:12.677Z,10.00
2022-09-28T08:44:10.340Z,10.06
2022-09-28T08:46:49.387Z,10.14
2022-09-28T08:49:29.701Z,10.20
2022-09-28T08:52:11.416Z,10.27
2022-09-28T08:54:38.851Z,10.35
2022-09-28T08:57:15.699Z,10.44
2022-09-28T08:59:54.165Z,10.51
2022-09-28T09:02:36.672Z,10.59
2022-09-28T09:05:06.713Z,10.67
2022-09-28T09:07:58.037Z,10.78
2022-09-28T09:10:39.567Z,10.87
2022-09-28T09:13:50.369Z,11.06
2022-09-28T09:16:25.709Z,11.17
2022-09-28T09:19:17.317Z,11.20
2022-09-28T09:21:46.804Z,11.18
2022-09-28T09:24:26.984Z,11.21
2022-09-28T09:39:32.803Z,12.15
2022-09-28T09:46:16.011Z,11.88
2022-09-28T09:52:45.144Z,12.30
2022-09-28T09:56:47.538Z,12.38
2022-09-28T10:36:27.830Z,13.57
2022-09-28T11:41:39.613Z,14.80
2022-09-28T11:44:58.898Z,15.40
2022-09-28T12:04:27.583Z,13.92
2022-09-28T12:33:16.878Z,13.85
2022-09-28T12:51:30.564Z,10.86
2022-09-28T12:54:31.594Z,11.05
2022-09-28T12:57:22.905Z,11.09
2022-09-28T13:04:27.744Z,11.31
2022-09-28T13:11:09.714Z,11.52
2022-09-28T13:13:46.833Z,11.60
2022-09-28T13:19:54.734Z,11.82
2022-09-28T13:22:44.469Z,11.97
2022-09-28T13:25:16.563Z,12.18
2022-09-28T13:27:58.706Z,12.42
2022-09-28T13:30:25.771Z,12.67
2022-09-28T13:32:57.625Z,12.88
2022-09-28T13:35:25.097Z,13.05
2022-09-28T13:38:23.657Z,13.23
2022-09-28T13:41:05.244Z,13.36
2022-09-28T13:43:40.070Z,13.48
2022-09-28T13:54:29.544Z,14.23
2022-09-28T13:57:19.648Z,14.24
2022-09-28T14:00:40.936Z,14.35
2022-09-28T14:03:20.557Z,14.45
2022-09-28T14:13:43.446Z,14.12
2022-09-28T14:16:32.341Z,13.90
2022-09-28T14:27:34.839Z,13.30
2022-09-28T14:38:54.016Z,12.77
2022-09-28T14:46:09.777Z,12.50
2022-09-28T14:56:21.823Z,12.03
2022-09-28T15:02:52.707Z,11.79
2022-09-28T15:13:42.315Z,11.58
2022-09-28T16:07:12.857Z,11.36
2022-09-28T16:21:36.196Z,11.55
2022-09-28T16:39:55.966Z,11.68
2022-09-28T17:01:23.164Z,10.91
2022-09-28T17:03:50.338Z,10.84
2022-09-28T17:06:19.764Z,10.72
2022-09-28T17:08:46.679Z,10.64
2022-09-28T17:11:26.973Z,10.54
2022-09-28T17:13:59.445Z,10.46
2022-09-28T17:16:49.800Z,10.37
2022-09-28T17:19:33.108Z,10.27
2022-09-28T17:26:24.331Z,10.03
2022-09-28T17:28:50.769Z,9.97
2022-09-28T17:31:17.770Z,9.89
2022-09-28T17:33:45.189Z,9.80
2022-09-28T17:36:17.554Z,9.74
2022-09-28T17:38:44.715Z,9.68
2022-09-28T17:45:07.489Z,9.52
2022-09-28T17:47:34.505Z,9.44
2022-09-28T17:50:01.075Z,9.38
2022-09-28T17:52:38.081Z,9.33
2022-09-28T17:55:30.390Z,9.31
2022-09-28T17:57:58.113Z,9.26
2022-09-28T18:13:21.738Z,8.80
2022-09-28T18:15:51.658Z,8.74
2022-09-28T18:18:18.635Z,8.72
2022-09-28T18:20:45.162Z,8.65
2022-09-28T18:23:11.696Z,8.59
2022-09-28T18:25:43.061Z,8.53
2022-09-28T18:28:10.675Z,8.48
2022-09-28T18:30:42.827Z,8.43
2022-09-28T18:33:10.420Z,8.42
2022-09-28T18:35:37.022Z,8.37
2022-09-28T18:38:05.294Z,8.34
2022-09-28T18:41:11.388Z,8.35
2022-09-28T18:48:05.774Z,8.29
2022-09-28T18:50:32.357Z,8.28
2022-09-28T18:53:11.394Z,8.25
2022-09-28T18:55:42.505Z,8.20
2022-09-28T18:58:10.590Z,8.12
2022-09-28T19:00:39.311Z,8.10
2022-09-28T19:03:06.915Z,8.12
2022-09-28T19:05:35.023Z,8.15
2022-09-28T19:08:01.802Z,8.18
2022-09-28T19:10:28.660Z,8.19
2022-09-28T19:12:55.115Z,8.19
2022-09-28T19:15:22.745Z,8.16
2022-09-28T19:17:50.074Z,8.11
2022-09-28T19:20:17.145Z,8.09
2022-09-28T19:22:44.208Z,8.04
2022-09-28T19:25:11.080Z,8.01
2022-09-28T19:27:37.617Z,8.00
2022-09-28T19:30:04.508Z,8.00
2022-09-28T19:32:31.067Z,8.01
2022-09-28T19:34:58.527Z,8.00
2022-09-28T19:37:25.135Z,7.96
2022-09-28T19:39:51.656Z,7.91
2022-09-28T19:42:18.145Z,7.87
2022-09-28T19:44:44.849Z,7.84
2022-09-28T19:47:13.075Z,7.81
2022-09-28T19:49:40.656Z,7.77
2022-09-28T19:52:15.605Z,7.70
2022-09-28T19:54:44.419Z,7.66
2022-09-28T19:57:12.582Z,7.69
2022-09-28T19:59:39.073Z,7.68
2022-09-28T20:02:10.160Z,7.66
2022-09-28T20:04:36.759Z,7.65
2022-09-28T20:07:04.263Z,7.59
2022-09-28T20:09:31.920Z,7.55
2022-09-28T20:11:58.394Z,7.52
2022-09-28T20:14:28.166Z,7.50
2022-09-28T20:16:58.458Z,7.46
2022-09-28T20:19:24.961Z,7.45
2022-09-28T20:21:51.450Z,7.40
2022-09-28T20:24:18.023Z,7.36
2022-09-28T20:26:45.836Z,7.29
2022-09-28T20:29:12.838Z,7.25
2022-09-28T20:31:39.778Z,7.22
2022-09-28T20:34:07.026Z,7.19
2022-09-28T20:36:33.898Z,7.16
2022-09-28T20:39:04.270Z,7.11
2022-09-28T20:41:35.663Z,7.03
2022-09-28T20:44:05.599Z,6.99
2022-09-28T20:46:33.524Z,6.98
2022-09-28T20:49:00.245Z,6.93
2022-09-28T20:51:26.916Z,6.90
2022-09-28T20:53:55.385Z,6.93
2022-09-28T20:56:24.570Z,6.95
2022-09-28T20:58:51.953Z,6.96
2022-09-28T21:01:21.329Z,6.90
2022-09-28T21:03:50.300Z,6.86
2022-09-28T21:06:18.253Z,6.81
2022-09-28T21:08:45.890Z,6.76
2022-09-28T21:11:13.710Z,6.72
2022-09-28T21:13:42.833Z,6.67
2022-09-28T21:16:15.855Z,6.62
2022-09-28T21:18:42.591Z,6.57
2022-09-28T21:21:14.751Z,6.50
2022-09-28T21:23:42.604Z,6.48
2022-09-28T21:26:15.708Z,6.42
2022-09-28T21:28:44.740Z,6.40
2022-09-28T21:31:12.711Z,6.37
2022-09-28T21:33:39.417Z,6.34
2022-09-28T21:36:07.741Z,6.37
2022-09-28T21:38:35.022Z,6.38
2022-09-28T21:41:01.811Z,6.33
2022-09-28T21:43:29.832Z,6.30
2022-09-28T21:45:57.596Z,6.31
2022-09-28T21:48:27.529Z,6.30
2022-09-28T21:51:03.892Z,6.26
2022-09-28T21:53:35.361Z,6.19
2022-09-28T21:56:03.766Z,6.14
2022-09-28T21:58:33.533Z,6.13
2022-09-28T22:01:08.396Z,6.11
2022-09-28T22:03:36.395Z,6.12
2022-09-28T22:06:04.339Z,6.11
2022-09-28T22:08:30.783Z,6.07
2022-09-28T22:11:04.623Z,6.05
2022-09-28T22:13:36.916Z,6.02
2022-09-28T22:16:03.633Z,5.96
2022-09-28T22:18:31.399Z,5.89
2022-09-28T22:21:13.705Z,5.88
2022-09-28T22:23:40.330Z,5.80
2022-09-28T22:26:18.890Z,5.76
2022-09-28T22:28:47.973Z,5.76
2022-09-28T22:31:15.854Z,5.73
2022-09-28T22:33:42.535Z,5.65
2022-09-28T22:36:16.836Z,5.62
2022-09-28T22:38:53.698Z,5.58
2022-09-28T22:41:23.254Z,5.63
2022-09-28T22:43:51.647Z,5.62
2022-09-28T22:46:21.136Z,5.54
2022-09-28T22:48:49.114Z,5.43
2022-09-28T22:51:15.998Z,5.35
2022-09-28T22:53:42.933Z,5.34
2022-09-28T22:56:12.600Z,5.39
2022-09-28T22:58:42.641Z,5.40
2022-09-28T23:01:21.512Z,5.36
2022-09-28T23:03:48.484Z,5.32
2022-09-28T23:06:17.363Z,5.28
2022-09-28T23:08:45.253Z,5.20
2022-09-28T23:11:11.844Z,5.18
2022-09-28T23:13:38.374Z,5.20
2022-09-28T23:16:07.040Z,5.18
2022-09-28T23:18:35.828Z,5.10
2022-09-28T23:21:05.197Z,5.05
2022-09-28T23:23:32.454Z,5.00
2022-09-28T23:25:59.415Z,4.97
2022-09-28T23:28:27.043Z,4.97
2022-09-28T23:30:54.342Z,4.93
2022-09-28T23:33:22.206Z,4.93
2022-09-28T23:35:49.434Z,4.93
2022-09-28T23:38:18.190Z,4.88
2022-09-28T23:40:47.882Z,4.86
2022-09-28T23:43:14.787Z,4.88
2022-09-28T23:45:45.501Z,4.85
2022-09-28T23:48:14.936Z,4.78
2022-09-28T23:50:43.283Z,4.72
2022-09-28T23:53:11.797Z,4.66
2022-09-28T23:55:38.239Z,4.63
2022-09-28T23:58:04.688Z,4.64
